| time (UTC) | temp C | wind direction | speed KPH | gust KPH | rain 1hr cm | rain 24hr cm | rain mn cm | humidity % | barometer mb |
| 20260906224549 | 35 | 162 | 4.8 | 14.5 | 0.00 | 0.00 | 0.00 | 38 | 1009.5 |
| 20260906223038 | 34 | 193 | 9.7 | 19.3 | 0.00 | 0.00 | 0.00 | 39 | 1009.6 |
| 20260906221542 | 35 | 140 | 16.1 | 29.0 | 0.00 | 0.00 | 0.00 | 39 | 1009.7 |
| 20260906220037 | 35 | 155 | 12.9 | 25.7 | 0.00 | 0.00 | 0.00 | 38 | 1009.6 |
| 20260906214544 | 34 | 152 | 3.2 | 14.5 | 0.00 | 0.00 | 0.00 | 39 | 1009.7 |
| 20260906213034 | 36 | 196 | 8.0 | 19.3 | 0.00 | 0.00 | 0.00 | 36 | 1009.9 |
| 20260906211514 | 36 | 159 | 4.8 | 16.1 | 0.00 | 0.00 | 0.00 | 35 | 1010.1 |
| 20260906210022 | 35 | 132 | 1.6 | 14.5 | 0.00 | 0.00 | 0.00 | 36 | 1010.4 |
| 20260906204557 | 35 | 150 | 6.4 | 17.7 | 0.00 | 0.00 | 0.00 | 37 | 1010.7 |
| 20260906203055 | 35 | 208 | 11.3 | 19.3 | 0.00 | 0.00 | 0.00 | 37 | 1010.9 |
| 20260906201553 | 35 | 188 | 11.3 | 17.7 | 0.00 | 0.00 | 0.00 | 38 | 1011.0 |
| 20260906200152 | 33 | 143 | 11.3 | 24.1 | 0.00 | 0.00 | 0.00 | 41 | 1011.2 |
| 20260906194552 | 35 | 144 | 9.7 | 25.7 | 0.00 | 0.00 | 0.00 | 40 | 1011.1 |
| 20260906193051 | 34 | 137 | 6.4 | 14.5 | 0.00 | 0.00 | 0.00 | 40 | 1011.4 |
| 20260906191550 | 34 | 149 | 4.8 | 22.5 | 0.00 | 0.00 | 0.00 | 40 | 1011.4 |
| 20260906190048 | 35 | 184 | 8.0 | 14.5 | 0.00 | 0.00 | 0.00 | 39 | 1011.6 |
| 20260906184537 | 34 | 139 | 1.6 | 17.7 | 0.00 | 0.00 | 0.00 | 40 | 1011.9 |
| 20260906183038 | 33 | 97 | 9.7 | 22.5 | 0.00 | 0.00 | 0.00 | 42 | 1012.2 |
| 20260906181539 | 33 | 97 | 3.2 | 9.7 | 0.00 | 0.00 | 0.00 | 45 | 1012.3 |
| 20260906180033 | 33 | 182 | 3.2 | 11.3 | 0.00 | 0.00 | 0.00 | 45 | 1012.5 |
| 20260906174533 | 34 | 216 | 0.0 | 9.7 | 0.00 | 0.00 | 0.00 | 44 | 1012.7 |
| 20260906173034 | 33 | 199 | 6.4 | 19.3 | 0.00 | 0.00 | 0.00 | 44 | 1013.0 |
| 20260906171532 | 34 | 153 | 3.2 | 8.0 | 0.00 | 0.00 | 0.00 | 44 | 1013.3 |
| 20260906170030 | 33 | 227 | 4.8 | 11.3 | 0.00 | 0.00 | 0.00 | 45 | 1013.3 |
| 20260906164530 | 33 | 355 | 1.6 | 11.3 | 0.00 | 0.00 | 0.00 | 44 | 1013.5 |
| 20260906163030 | 35 | 148 | 4.8 | 11.3 | 0.00 | 0.00 | 0.00 | 44 | 1013.6 |
| 20260906161512 | 34 | 320 | 0.0 | 4.8 | 0.00 | 0.00 | 0.00 | 47 | 1013.7 |
| 20260906160028 | 33 | 42 | 1.6 | 4.8 | 0.00 | 0.00 | 0.00 | 49 | 1013.8 |
| 20260906154509 | 33 | 300 | 1.6 | 4.8 | 0.00 | 0.00 | 0.00 | 49 | 1013.7 |
| 20260906153006 | 34 | 5 | 1.6 | 6.4 | 0.00 | 0.00 | 0.00 | 49 | 1013.7 |
| 20260906151502 | 32 | 308 | 0.0 | 6.4 | 0.00 | 0.00 | 0.00 | 54 | 1013.7 |
| 20260906150100 | 31 | 239 | 0.0 | 8.0 | 0.00 | 0.00 | 0.00 | 56 | 1013.5 |
| 20260906144609 | 31 | 246 | 1.6 | 4.8 | 0.00 | 0.00 | 0.00 | 56 | 1013.4 |
| 20260906143108 | 30 | 198 | 0.0 | 3.2 | 0.00 | 0.00 | 0.00 | 61 | 1013.4 |
| 20260906141539 | 29 | 207 | 1.6 | 6.4 | 0.00 | 0.00 | 0.00 | 63 | 1013.4 |
| 20260906140043 | 27 | 119 | 0.0 | 3.2 | 0.00 | 0.00 | 0.00 | 65 | 1013.4 |
| 20260906134530 | 27 | 56 | 0.0 | 3.2 | 0.00 | 0.00 | 0.00 | 67 | 1013.2 |
| 20260906133026 | 25 | 175 | 0.0 | 1.6 | 0.00 | 0.00 | 0.00 | 72 | 1013.2 |
| 20260906130037 | 22 | 89 | 0.0 | 0.0 | 0.00 | 0.00 | 0.00 | 75 | 1012.9 |
| 20260906124519 | 21 | 89 | 0.0 | 0.0 | 0.00 | 0.00 | 0.00 | 77 | 1012.7 |
| 20260906123021 | 21 | 89 | 0.0 | 0.0 | 0.00 | 0.00 | 0.00 | 78 | 1012.5 |
| 20260906121505 | 21 | 89 | 0.0 | 0.0 | 0.00 | 0.00 | 0.00 | 79 | 1012.4 |
| 20260906120004 | 21 | 89 | 0.0 | 0.0 | 0.00 | 0.00 | 0.00 | 79 | 1012.3 |
| 20260906114503 | 21 | 89 | 0.0 | 0.0 | 0.00 | 0.00 | 0.00 | 78 | 1012.1 |
| 20260906113100 | 21 | 89 | 0.0 | 0.0 | 0.00 | 0.00 | 0.00 | 76 | 1012.1 |
| 20260906111558 | 21 | 89 | 0.0 | 0.0 | 0.00 | 0.00 | 0.00 | 76 | 1011.9 |
| 20260906110056 | 22 | 89 | 0.0 | 0.0 | 0.00 | 0.00 | 0.00 | 75 | 1011.9 |
| 20260906104656 | 22 | 89 | 0.0 | 0.0 | 0.00 | 0.00 | 0.00 | 75 | 1011.9 |
| 20260906103055 | 22 | 88 | 0.0 | 0.0 | 0.00 | 0.00 | 0.00 | 74 | 1011.7 |
| 20260906101540 | 22 | 89 | 0.0 | 0.0 | 0.00 | 0.00 | 0.00 | 73 | 1011.7 |
| 20260906100034 | 22 | 132 | 0.0 | 0.0 | 0.00 | 0.00 | 0.00 | 73 | 1011.7 |
| 20260906094531 | 22 | 133 | 0.0 | 0.0 | 0.00 | 0.00 | 0.00 | 75 | 1011.5 |
| 20260906093018 | 22 | 133 | 0.0 | 0.0 | 0.00 | 0.00 | 0.00 | 73 | 1011.3 |
| 20260906091525 | 22 | 133 | 0.0 | 0.0 | 0.00 | 0.00 | 0.00 | 73 | 1011.2 |
| 20260906090016 | 23 | 133 | 0.0 | 0.0 | 0.00 | 0.00 | 0.00 | 72 | 1011.2 |
| 20260906084522 | 23 | 133 | 0.0 | 0.0 | 0.00 | 0.00 | 0.00 | 72 | 1011.3 |
| 20260906083021 | 23 | 130 | 0.0 | 6.4 | 0.00 | 0.00 | 0.00 | 71 | 1011.5 |
| 20260906081529 | 23 | 188 | 0.0 | 1.6 | 0.00 | 0.00 | 0.00 | 71 | 1011.6 |
| 20260906080010 | 23 | 203 | 0.0 | 0.0 | 0.00 | 0.00 | 0.00 | 72 | 1011.4 |
| 20260906074556 | 23 | 203 | 0.0 | 0.0 | 0.00 | 0.00 | 0.00 | 71 | 1011.3 |
| 20260906073054 | 23 | 203 | 0.0 | 0.0 | 0.00 | 0.00 | 0.00 | 70 | 1011.5 |
| 20260906071604 | 23 | 203 | 0.0 | 0.0 | 0.00 | 0.00 | 0.00 | 71 | 1011.7 |
| 20260906070052 | 23 | 203 | 0.0 | 0.0 | 0.00 | 0.00 | 0.00 | 70 | 1011.8 |
| 20260906064549 | 23 | 203 | 0.0 | 0.0 | 0.00 | 0.00 | 0.00 | 69 | 1011.8 |
| 20260906063149 | 24 | 203 | 0.0 | 0.0 | 0.00 | 0.00 | 0.00 | 69 | 1011.9 |
| 20260906061544 | 24 | 203 | 0.0 | 0.0 | 0.00 | 0.00 | 0.00 | 66 | 1012.1 |
| 20260906060041 | 25 | 203 | 0.0 | 1.6 | 0.00 | 0.00 | 0.00 | 63 | 1012.0 |
| 20260906054529 | 25 | 205 | 0.0 | 1.6 | 0.00 | 0.00 | 0.00 | 62 | 1012.0 |
| 20260906053030 | 25 | 205 | 0.0 | 1.6 | 0.00 | 0.00 | 0.00 | 62 | 1012.2 |
| 20260906051531 | 25 | 205 | 0.0 | 1.6 | 0.00 | 0.00 | 0.00 | 61 | 1012.2 |
| 20260906050046 | 26 | 200 | 0.0 | 3.2 | 0.00 | 0.00 | 0.00 | 58 | 1012.3 |
| 20260906044521 | 26 | 159 | 0.0 | 1.6 | 0.00 | 0.00 | 0.00 | 57 | 1012.3 |
| 20260906043021 | 26 | 159 | 0.0 | 1.6 | 0.00 | 0.00 | 0.00 | 56 | 1012.3 |
| 20260906041520 | 27 | 159 | 0.0 | 3.2 | 0.00 | 0.00 | 0.00 | 55 | 1012.3 |
| 20260906040020 | 27 | 165 | 1.6 | 8.0 | 0.00 | 0.00 | 0.00 | 53 | 1012.1 |
| 20260906034527 | 28 | 165 | 3.2 | 6.4 | 0.00 | 0.00 | 0.00 | 51 | 1012.0 |
| 20260906033008 | 29 | 158 | 3.2 | 11.3 | 0.00 | 0.00 | 0.00 | 49 | 1011.9 |
| 20260906031507 | 29 | 182 | 4.8 | 9.7 | 0.00 | 0.00 | 0.00 | 49 | 1011.5 |
| 20260906030006 | 30 | 114 | 4.8 | 11.3 | 0.00 | 0.00 | 0.00 | 46 | 1011.0 |
| 20260906024507 | 30 | 92 | 6.4 | 12.9 | 0.00 | 0.00 | 0.00 | 45 | 1010.7 |
| 20260906023005 | 31 | 114 | 6.4 | 14.5 | 0.00 | 0.00 | 0.00 | 43 | 1010.4 |
| 20260906021504 | 31 | 136 | 6.4 | 14.5 | 0.00 | 0.00 | 0.00 | 42 | 1010.2 |
| 20260906020004 | 31 | 92 | 3.2 | 9.7 | 0.00 | 0.00 | 0.00 | 42 | 1010.0 |
| 20260906014508 | 31 | 113 | 3.2 | 9.7 | 0.00 | 0.00 | 0.00 | 41 | 1009.9 |
| 20260906013045 | 32 | 115 | 1.6 | 14.5 | 0.00 | 0.00 | 0.00 | 40 | 1009.7 |
| 20260906011544 | 32 | 123 | 6.4 | 12.9 | 0.00 | 0.00 | 0.00 | 39 | 1009.5 |
| 20260906010034 | 33 | 103 | 8.0 | 16.1 | 0.00 | 0.00 | 0.00 | 38 | 1009.3 |
| 20260906004536 | 33 | 130 | 9.7 | 17.7 | 0.00 | 0.00 | 0.00 | 38 | 1009.1 |
| 20260906003033 | 34 | 94 | 4.8 | 14.5 | 0.00 | 0.00 | 0.00 | 39 | 1009.3 |
| 20260906000032 | 35 | 153 | 9.7 | 16.1 | 0.00 | 0.00 | 0.00 | 38 | 1009.1 |
| 20260905234529 | 35 | 85 | 8.0 | 17.7 | 0.00 | 0.00 | 0.00 | 38 | 1008.9 |
| 20260905233030 | 35 | 169 | 4.8 | 19.3 | 0.00 | 0.00 | 0.00 | 38 | 1008.8 |
| 20260905231528 | 35 | 128 | 11.3 | 17.7 | 0.00 | 0.00 | 0.00 | 38 | 1008.8 |
| 20260905230015 | 35 | 108 | 4.8 | 19.3 | 0.00 | 0.00 | 0.00 | 39 | 1008.8 |